Ana Sayfa
METAR-TAF:

METAR-TAF

Havaalanları :

Reykjavík Havalimanı

Reykjavik, İzlanda

Enlem: 64-08N, Boylam: 021-54W, yükseklik: 54 m

Güncel hava durumu gözlemi

Rapor saat 10:00 UTC de 29 dakika önce yapıldı.
Rüzgar güneydoğudan 3 kt
Sıcaklık -6°C
Nem 73%
Basınç 1013 hPa
Görüş mesafesi 10 km veya daha fazla
1500 m altında bulut yok ve kümülonimbus yok

METAR: BIRK 161000Z 13003KT CAVOK M06/M10 Q1013

Saat: 10:29 (10:29 UTC)

Tahmin

Rapor saat 07:52 UTC de 2 saat ve 37 dakika önce yapıldı.
Ayın 16'si saat 09 UTC'den ayın 17'si saat 09 UTC'ye kadar geçerli Tahmin
Rüzgar doğudan 5 kt
Görüş mesafesi 10 km veya daha fazla
1500 m altında bulut yok ve kümülonimbus yok
Dönüşüyor
ayın 16'si saat 20 UTC'den ayın 16'si saat 23 UTC'ye kadar
Rüzgar doğudan 15 kt
Görüş mesafesi 10 km veya daha fazla
2500 ft yükseklikte az bulutlu
3500 ft yükseklikte parçalı çok bulutlu

TAF: BIRK 160752Z 1609/1709 09005KT CAVOK TXM01/1706Z TNM06/1609Z BECMG 1620/1623 09015KT 9999 FEW025 BKN035

4.000'den fazla havaalanı için hava durumu gözlemleri ve tahminleri (METAR ve TAF raporları).

Kullanılabilir istasyonlar harita üzerinde sarı ve kırmızı noktalarla gösterilir.

İstasyonun adını görmek için fareyi noktanın üzerinde gezdirin.

Sonrasında hava gözlem ve tahminlerini görmek için tıklayın.

Haritayı değiştirmek için: yaklaştırmak için siyah artı işaretli yeşil düğmeye ve uzaklaştırmak için de eksi işaretli düğmeye hızla tıklayın; bitişik haritalar için yeşil okları kullanın.


METAR-TAF: